If you wish to contribute or participate in the discussions about articles you are invited to join SKYbrary as a registered user

 Actions

Santiago Pérez Quiroz Airport

From SKYbrary Wiki

SKUC
Airport
ICAO: SKUC – IATA: AUC
Summary
Name Santiago Pérez Quiroz Airport
Region South America and Caribbean
Territory Colombia CO.gif
Location Arauca, Arauca Department
Serving Arauca
Elevation 128.93 m
423 ft128.93 m
Coordinates 7° 4' 5.39" N, 70° 44' 7.12" W
Runways
Designator Length Width Surface ROPS
11/29 2100 m6,889.764 ft
30 m98.425 ft
ASP /


METAR
Observation SKUC 212000Z 09003KT 9999 SCT012 32/24 A2977
Station Arauca / Santiago Perez
Date/Time 21 October 2019 20:00:00
Wind direction 90°
Wind speed 03 kts
Lowest cloud amount scattered clouds
Temperature 32°C
Dew point 24°C
Humidity 62%
QNH hPa
Weather condition n/a

Santiago Pérez Quiroz Airport is an airport serving Arauca, the capital of the Arauca Department in Colombia. The runway is southeast of the city, and 2km1.08 nm
2,000 m
6,561.68 ft
south of Colombia's border with Venezuela.

Climatology

Tropical savannah climate (Köppen climate classification Aw)

Maps

Terrain

Loading map...

Airport Layout

Loading map...


Accidents & Serious Incidents at or in vicinity of SKUC

None on SKYbrary